Time;durP1;ratioP1;P1;durP2;ratioP2;P2;SDS_P1;SDS_P2;PMS_P1;PMS_P2;Temp;Humidity;BMP_temperature;BMP_pressure;BME280_temperature;BME280_humidity;BME280_pressure;Samples;Min_cycle;Max_cycle;Signal;HPM_P1;HPM_P2
2021/07/25 00:00:45;;;;;;;12.10;5.43;;;;;;;;;;10550236;28;20524;-86
2021/07/25 00:05:45;;;;;;;5.82;4.95;;;;;;;;;;10576834;28;20047;-83
2021/07/25 00:10:46;;;;;;;16.27;4.65;;;;;;;;;;10582938;28;20028;-83
2021/07/25 00:15:47;;;;;;;7.78;4.50;;;;;;;;;;10597535;28;20073;-83
2021/07/25 00:20:47;;;;;;;8.10;4.30;;;;;;;;;;10581748;28;20076;-83
2021/07/25 00:25:49;;;;;;;5.77;4.33;;;;;;;;;;10591031;28;20023;-84
2021/07/25 00:30:50;;;;;;;7.53;5.10;;;;;;;;;;10568869;28;20103;-83
2021/07/25 00:35:50;;;;;;;6.80;5.30;;;;;;;;;;10558465;28;20073;-84
2021/07/25 00:40:53;;;;;;;4.70;4.20;;;;;;;;;;10568728;28;20403;-85
2021/07/25 00:45:55;;;;;;;5.90;4.68;;;;;;;;;;10563376;28;21072;-84
2021/07/25 00:50:57;;;;;;;9.55;4.82;;;;;;;;;;10565635;28;20086;-84
2021/07/25 00:55:57;;;;;;;5.20;3.90;;;;;;;;;;10549198;28;20044;-84
2021/07/25 01:00:58;;;;;;;4.90;4.32;;;;;;;;;;10553881;28;20028;-83
2021/07/25 01:06:13;;;;;;;5.72;4.25;;;;;;;;;;10565335;28;20528;-84
2021/07/25 01:11:14;;;;;;;4.47;4.05;;;;;;;;;;10535323;28;20114;-82
2021/07/25 01:16:14;;;;;;;7.38;4.07;;;;;;;;;;10577175;28;20027;-82
2021/07/25 01:21:16;;;;;;;5.07;4.20;;;;;;;;;;10556923;28;20103;-82
2021/07/25 01:26:22;;;;;;;5.22;4.65;;;;;;;;;;10591794;28;20446;-82
2021/07/25 01:31:31;;;;;;;5.93;4.20;;;;;;;;;;10569969;28;20028;-81
2021/07/25 01:36:32;;;;;;;5.18;4.20;;;;;;;;;;10547893;28;20032;-81
2021/07/25 01:41:42;;;;;;;4.20;3.80;;;;;;;;;;10542039;28;20031;-81
2021/07/25 01:46:43;;;;;;;6.18;4.03;;;;;;;;;;10569369;28;20035;-81
2021/07/25 01:51:43;;;;;;;4.23;3.90;;;;;;;;;;10579796;28;20021;-80
2021/07/25 01:56:43;;;;;;;4.70;3.97;;;;;;;;;;10587531;28;20499;-81
2021/07/25 02:01:44;;;;;;;6.83;4.10;;;;;;;;;;10571642;28;20039;-80
2021/07/25 02:06:44;;;;;;;5.00;3.60;;;;;;;;;;10562385;28;20473;-82
2021/07/25 02:11:44;;;;;;;4.32;3.90;;;;;;;;;;10552773;28;20451;-81
2021/07/25 02:16:45;;;;;;;5.73;3.90;;;;;;;;;;10578075;28;20023;-82
2021/07/25 02:21:45;;;;;;;4.20;3.77;;;;;;;;;;10579770;28;20040;-83
2021/07/25 02:26:47;;;;;;;5.83;3.87;;;;;;;;;;10551502;28;20480;-83
2021/07/25 02:31:47;;;;;;;5.43;3.60;;;;;;;;;;10579247;28;20489;-83
2021/07/25 02:36:48;;;;;;;4.83;3.50;;;;;;;;;;10577505;28;20059;-83
2021/07/25 02:41:48;;;;;;;5.10;3.55;;;;;;;;;;10566717;28;20065;-82
2021/07/25 02:46:49;;;;;;;3.93;3.50;;;;;;;;;;10558453;28;20044;-81
2021/07/25 02:51:49;;;;;;;4.40;3.70;;;;;;;;;;10558740;28;20440;-82
2021/07/25 02:56:50;;;;;;;4.10;3.70;;;;;;;;;;10558346;28;20475;-84
2021/07/25 03:01:50;;;;;;;4.63;3.47;;;;;;;;;;10558341;28;20027;-83
2021/07/25 03:06:50;;;;;;;4.63;3.77;;;;;;;;;;10561285;28;20047;-84
2021/07/25 03:11:51;;;;;;;4.93;3.27;;;;;;;;;;10583003;28;20440;-84
2021/07/25 03:16:51;;;;;;;3.67;3.37;;;;;;;;;;10559147;28;20081;-84
2021/07/25 03:21:52;;;;;;;4.50;3.40;;;;;;;;;;10586088;28;20043;-83
2021/07/25 03:26:52;;;;;;;4.72;2.92;;;;;;;;;;10599891;28;20024;-84
2021/07/25 03:31:53;;;;;;;4.15;3.35;;;;;;;;;;10570911;28;20092;-82
2021/07/25 03:36:53;;;;;;;5.53;3.45;;;;;;;;;;10583928;28;20476;-81
2021/07/25 03:41:54;;;;;;;4.20;3.28;;;;;;;;;;10567290;28;20416;-81
2021/07/25 03:46:54;;;;;;;7.43;3.50;;;;;;;;;;10555490;28;20474;-82
2021/07/25 03:51:56;;;;;;;4.45;3.45;;;;;;;;;;10577265;28;20103;-82
2021/07/25 03:56:56;;;;;;;4.18;3.30;;;;;;;;;;10594696;28;20028;-82
2021/07/25 04:01:57;;;;;;;3.78;3.22;;;;;;;;;;10539035;28;20024;-82
2021/07/25 04:06:57;;;;;;;3.60;2.93;;;;;;;;;;10572010;28;20044;-82
2021/07/25 04:11:58;;;;;;;4.65;3.15;;;;;;;;;;10587695;28;20089;-82
2021/07/25 04:16:58;;;;;;;3.73;3.00;;;;;;;;;;10593881;28;20034;-82
2021/07/25 04:21:59;;;;;;;3.83;3.10;;;;;;;;;;10569506;28;20020;-82
2021/07/25 04:26:59;;;;;;;3.97;3.60;;;;;;;;;;10554852;28;20473;-82
2021/07/25 04:32:00;;;;;;;3.40;3.10;;;;;;;;;;10554193;28;20103;-83
2021/07/25 04:37:01;;;;;;;3.95;3.40;;;;;;;;;;10536091;28;20111;-81
2021/07/25 04:42:02;;;;;;;3.50;3.05;;;;;;;;;;10582667;28;20019;-82
2021/07/25 04:47:04;;;;;;;3.97;3.20;;;;;;;;;;10537002;28;20060;-83
2021/07/25 04:52:06;;;;;;;3.00;2.70;;;;;;;;;;10579482;28;20032;-83
2021/07/25 04:57:12;;;;;;;3.17;2.88;;;;;;;;;;10584819;28;20032;-83
2021/07/25 05:02:17;;;;;;;3.63;3.00;;;;;;;;;;10565912;28;20027;-82
2021/07/25 05:07:17;;;;;;;3.55;3.08;;;;;;;;;;10573590;28;20055;-82
2021/07/25 05:12:21;;;;;;;3.15;2.85;;;;;;;;;;10568091;28;20024;-83
2021/07/25 05:17:58;;;;;;;5.13;3.05;;;;;;;;;;10536652;28;20024;-83
2021/07/25 05:23:21;;;;;;;3.20;2.87;;;;;;;;;;10567807;28;20051;-80
2021/07/25 05:28:22;;;;;;;3.20;2.90;;;;;;;;;;10549996;28;20059;-81
2021/07/25 05:33:23;;;;;;;3.65;3.03;;;;;;;;;;10581569;28;20513;-80
2021/07/25 05:38:24;;;;;;;3.42;2.75;;;;;;;;;;10535674;28;20036;-80
2021/07/25 05:43:24;;;;;;;6.22;3.03;;;;;;;;;;10553728;28;20027;-79
2021/07/25 05:48:25;;;;;;;3.20;2.90;;;;;;;;;;10582591;28;20031;-82
2021/07/25 05:53:25;;;;;;;3.10;2.80;;;;;;;;;;10570603;28;20107;-80
2021/07/25 05:58:25;;;;;;;3.23;3.00;;;;;;;;;;10568401;28;20032;-82
2021/07/25 06:03:26;;;;;;;3.50;3.20;;;;;;;;;;10571469;28;20032;-81
2021/07/25 06:08:26;;;;;;;3.50;3.10;;;;;;;;;;10557942;28;20087;-81
2021/07/25 06:13:26;;;;;;;3.93;2.93;;;;;;;;;;10581513;28;20023;-82
2021/07/25 06:18:27;;;;;;;3.73;2.90;;;;;;;;;;10581071;28;20031;-82
2021/07/25 06:23:27;;;;;;;8.15;2.80;;;;;;;;;;10574341;28;20028;-82
2021/07/25 06:28:28;;;;;;;3.75;2.95;;;;;;;;;;10559768;28;20058;-83
2021/07/25 06:33:29;;;;;;;3.17;2.83;;;;;;;;;;10574054;28;20050;-83
2021/07/25 06:38:29;;;;;;;4.07;3.08;;;;;;;;;;10586053;28;20020;-82
2021/07/25 06:43:30;;;;;;;3.73;3.07;;;;;;;;;;10597712;28;20024;-83
2021/07/25 06:48:33;;;;;;;6.27;3.10;;;;;;;;;;10585215;28;20482;-81
2021/07/25 06:53:34;;;;;;;3.38;3.08;;;;;;;;;;10583724;28;20482;-82
2021/07/25 06:58:34;;;;;;;3.93;3.10;;;;;;;;;;10571468;28;20035;-81
2021/07/25 07:03:36;;;;;;;4.50;3.30;;;;;;;;;;10561044;28;20982;-79
2021/07/25 07:08:37;;;;;;;6.30;3.13;;;;;;;;;;10553459;28;20491;-79
2021/07/25 07:13:37;;;;;;;3.10;2.90;;;;;;;;;;10577991;28;20073;-78
2021/07/25 07:18:37;;;;;;;3.70;3.40;;;;;;;;;;10571621;28;20477;-78
2021/07/25 07:23:38;;;;;;;4.50;3.20;;;;;;;;;;10545177;28;20441;-79
2021/07/25 07:28:38;;;;;;;3.33;3.03;;;;;;;;;;10574217;28;20491;-80
2021/07/25 07:33:38;;;;;;;3.60;3.30;;;;;;;;;;10572379;28;20024;-79
2021/07/25 07:38:39;;;;;;;3.10;2.90;;;;;;;;;;10579629;28;20031;-81
2021/07/25 07:43:39;;;;;;;3.97;3.43;;;;;;;;;;10548497;28;20987;-82
2021/07/25 07:48:40;;;;;;;4.47;3.50;;;;;;;;;;10550120;28;20031;-82
2021/07/25 07:53:40;;;;;;;6.50;3.63;;;;;;;;;;10544958;28;20512;-82
2021/07/25 07:58:40;;;;;;;6.20;3.70;;;;;;;;;;10551601;28;20043;-84
2021/07/25 08:03:41;;;;;;;5.03;4.53;;;;;;;;;;10555517;28;20371;-83
2021/07/25 08:08:41;;;;;;;8.47;4.30;;;;;;;;;;10584587;28;20040;-82
2021/07/25 08:13:44;;;;;;;9.67;4.47;;;;;;;;;;10569777;28;20117;-83
2021/07/25 08:18:45;;;;;;;5.45;4.18;;;;;;;;;;10558512;28;20033;-83
2021/07/25 08:23:45;;;;;;;7.00;4.50;;;;;;;;;;10580656;28;20032;-83
2021/07/25 08:28:46;;;;;;;4.70;4.28;;;;;;;;;;10584210;28;20459;-84
2021/07/25 08:33:46;;;;;;;4.93;4.47;;;;;;;;;;10563193;28;20024;-81
2021/07/25 08:38:47;;;;;;;6.30;4.00;;;;;;;;;;10558258;28;20379;-88
2021/07/25 08:43:47;;;;;;;5.07;4.60;;;;;;;;;;10549921;28;20440;-81
2021/07/25 08:48:52;;;;;;;5.18;4.15;;;;;;;;;;10560783;28;20069;-83
2021/07/25 08:54:04;;;;;;;4.30;4.00;;;;;;;;;;10540360;28;20069;-83
2021/07/25 08:59:06;;;;;;;4.90;4.30;;;;;;;;;;10554722;28;20386;-83
2021/07/25 09:04:07;;;;;;;6.45;4.38;;;;;;;;;;10556928;28;20027;-83
2021/07/25 09:09:07;;;;;;;8.65;4.32;;;;;;;;;;10543176;28;20039;-83
2021/07/25 09:14:08;;;;;;;4.63;3.88;;;;;;;;;;10581365;28;20026;-83
2021/07/25 09:19:08;;;;;;;5.30;4.43;;;;;;;;;;10566512;28;20027;-85
2021/07/25 09:24:22;;;;;;;6.47;4.30;;;;;;;;;;10573097;28;20055;-82
2021/07/25 09:29:25;;;;;;;5.25;4.75;;;;;;;;;;10559134;28;20035;-82
2021/07/25 09:34:36;;;;;;;5.35;4.75;;;;;;;;;;10566818;28;20032;-83
2021/07/25 09:39:41;;;;;;;4.95;4.45;;;;;;;;;;10568422;28;20038;-80
2021/07/25 09:44:53;;;;;;;5.93;4.80;;;;;;;;;;10553897;28;20463;-87
2021/07/25 09:49:54;;;;;;;6.18;4.88;;;;;;;;;;10536454;28;20035;-85
2021/07/25 09:54:58;;;;;;;5.57;4.85;;;;;;;;;;10566280;28;20064;-82
2021/07/25 10:00:10;;;;;;;5.75;4.78;;;;;;;;;;10549027;22;20426;-84
2021/07/25 10:05:13;;;;;;;5.90;4.85;;;;;;;;;;10538658;28;20027;-83
2021/07/25 10:10:15;;;;;;;8.45;5.18;;;;;;;;;;10535714;28;20081;-82
2021/07/25 10:15:17;;;;;;;16.00;5.70;;;;;;;;;;10518846;28;20104;-81
2021/07/25 10:20:19;;;;;;;8.77;4.47;;;;;;;;;;10538971;28;20032;-82
2021/07/25 10:25:22;;;;;;;11.13;6.68;;;;;;;;;;10535080;28;20036;-81
2021/07/25 10:30:23;;;;;;;9.15;6.35;;;;;;;;;;10509712;28;20422;-81
2021/07/25 10:35:25;;;;;;;11.77;6.57;;;;;;;;;;10503593;28;20078;-81
2021/07/25 10:40:26;;;;;;;11.18;6.10;;;;;;;;;;10504464;28;20059;-81
2021/07/25 10:45:26;;;;;;;11.00;6.45;;;;;;;;;;10506277;28;20120;-80
2021/07/25 10:50:27;;;;;;;14.87;6.30;;;;;;;;;;10491904;28;20071;-81
2021/07/25 10:55:41;;;;;;;8.77;5.60;;;;;;;;;;10507933;28;20025;-80
2021/07/25 11:00:50;;;;;;;9.98;6.03;;;;;;;;;;10510053;28;20462;-81
2021/07/25 11:06:01;;;;;;;9.82;6.72;;;;;;;;;;10498862;28;20487;-82
2021/07/25 11:11:36;;;;;;;9.68;5.45;;;;;;;;;;10500108;28;20028;-81
2021/07/25 11:16:42;;;;;;;8.75;5.90;;;;;;;;;;10502718;28;20029;-81
2021/07/25 11:21:50;;;;;;;7.95;5.75;;;;;;;;;;10495272;28;20506;-81
2021/07/25 11:27:04;;;;;;;;;;;;;;;;;;10492784;28;20046;-81
2021/07/25 11:32:26;;;;;;;9.48;5.72;;;;;;;;;;10509783;28;19913;-81
2021/07/25 11:37:34;;;;;;;10.63;6.18;;;;;;;;;;10515893;28;20114;-81
2021/07/25 11:42:36;;;;;;;6.85;5.57;;;;;;;;;;10515183;28;20478;-82
2021/07/25 11:47:37;;;;;;;8.27;5.60;;;;;;;;;;10516606;28;20040;-81
2021/07/25 11:52:37;;;;;;;10.23;6.22;;;;;;;;;;10493791;28;20028;-81
2021/07/25 11:57:38;;;;;;;8.50;5.90;;;;;;;;;;10511215;28;20051;-81
2021/07/25 12:02:39;;;;;;;7.90;5.63;;;;;;;;;;10509321;28;20464;-81
2021/07/25 12:07:44;;;;;;;8.13;5.40;;;;;;;;;;10522584;28;20425;-81
2021/07/25 12:12:45;;;;;;;9.68;6.28;;;;;;;;;;10520738;28;20507;-82
2021/07/25 12:17:50;;;;;;;13.23;6.28;;;;;;;;;;10518317;28;20031;-81
2021/07/25 12:23:04;;;;;;;7.10;5.32;;;;;;;;;;10520371;28;20060;-81
2021/07/25 12:28:13;;;;;;;8.48;5.18;;;;;;;;;;10497068;28;20028;-81
2021/07/25 12:33:23;;;;;;;8.90;6.07;;;;;;;;;;10500494;28;20081;-81
2021/07/25 12:38:24;;;;;;;12.85;5.72;;;;;;;;;;10500564;28;20040;-81
2021/07/25 12:43:26;;;;;;;10.88;5.45;;;;;;;;;;10504253;28;20028;-81
2021/07/25 12:48:27;;;;;;;7.07;5.22;;;;;;;;;;10529963;28;20127;-81
2021/07/25 12:53:35;;;;;;;7.18;5.05;;;;;;;;;;10539425;28;20024;-80
2021/07/25 12:58:38;;;;;;;10.13;5.40;;;;;;;;;;10536835;28;20094;-81
2021/07/25 13:03:55;;;;;;;8.65;4.72;;;;;;;;;;10501204;28;20016;-81
2021/07/25 13:09:01;;;;;;;8.40;5.13;;;;;;;;;;10520265;28;20028;-81
2021/07/25 13:14:03;;;;;;;6.55;4.70;;;;;;;;;;10519895;28;20052;-83
2021/07/25 13:19:04;;;;;;;8.07;5.20;;;;;;;;;;10498095;28;20522;-85
2021/07/25 13:24:05;;;;;;;8.25;4.95;;;;;;;;;;10512155;28;20038;-86
2021/07/25 13:29:07;;;;;;;7.38;4.90;;;;;;;;;;10509587;28;20032;-87
2021/07/25 13:34:08;;;;;;;12.07;5.88;;;;;;;;;;10513611;28;20063;-86
2021/07/25 13:39:08;;;;;;;10.88;5.18;;;;;;;;;;10502497;28;20055;-86
2021/07/25 13:44:10;;;;;;;9.80;5.77;;;;;;;;;;10509739;28;20024;-87
2021/07/25 13:49:12;;;;;;;8.18;4.75;;;;;;;;;;10500252;28;20984;-85
2021/07/25 13:54:12;;;;;;;16.15;4.93;;;;;;;;;;10489970;28;20025;-85
2021/07/25 14:05:18;;;;;;;10.70;5.28;;;;;;;;;;10451308;28;20045;-85
2021/07/25 14:34:26;;;;;;;8.95;4.93;;;;;;;;;;10454831;28;20033;-84
2021/07/25 14:39:26;;;;;;;6.63;4.22;;;;;;;;;;10460057;28;20037;-85
2021/07/25 14:56:42;;;;;;;6.60;4.35;;;;;;;;;;10464106;28;20040;-85
2021/07/25 15:01:43;;;;;;;9.48;4.55;;;;;;;;;;10464784;28;20127;-85
2021/07/25 15:07:07;;;;;;;6.07;4.30;;;;;;;;;;10463165;28;20086;-85
2021/07/25 15:12:08;;;;;;;4.80;4.15;;;;;;;;;;10470041;28;20050;-86
2021/07/25 15:17:09;;;;;;;5.67;3.63;;;;;;;;;;10470845;28;20385;-87
2021/07/25 15:22:09;;;;;;;6.97;4.40;;;;;;;;;;10450859;28;20454;-86
2021/07/25 15:27:10;;;;;;;6.25;4.18;;;;;;;;;;10491579;28;20044;-87
2021/07/25 15:32:10;;;;;;;4.75;3.97;;;;;;;;;;10473279;28;20037;-86
2021/07/25 15:37:10;;;;;;;5.33;4.23;;;;;;;;;;10469776;28;20025;-86
2021/07/25 15:42:11;;;;;;;8.87;4.00;;;;;;;;;;10468179;28;20087;-91
2021/07/25 15:47:11;;;;;;;5.47;4.10;;;;;;;;;;10460800;28;20029;-85
2021/07/25 15:52:11;;;;;;;6.30;3.83;;;;;;;;;;10479246;28;20454;-85
2021/07/25 15:57:12;;;;;;;5.10;3.63;;;;;;;;;;10475890;28;20111;-86
2021/07/25 16:02:12;;;;;;;9.32;4.10;;;;;;;;;;10478492;28;20040;-86
2021/07/25 16:07:14;;;;;;;4.63;3.87;;;;;;;;;;10497640;28;20116;-88
2021/07/25 16:12:14;;;;;;;5.00;3.88;;;;;;;;;;10469440;28;20056;-88
2021/07/25 16:17:15;;;;;;;6.22;3.70;;;;;;;;;;10487754;28;20103;-88
2021/07/25 16:22:15;;;;;;;5.28;3.50;;;;;;;;;;10482959;28;20025;-88
2021/07/25 16:27:16;;;;;;;5.03;3.40;;;;;;;;;;10476979;28;20024;-86
2021/07/25 16:32:16;;;;;;;4.22;3.40;;;;;;;;;;10486281;28;20029;-85
2021/07/25 16:37:17;;;;;;;3.83;3.30;;;;;;;;;;10470809;28;20602;-86
2021/07/25 16:42:20;;;;;;;4.13;3.30;;;;;;;;;;10481630;28;20533;-86
2021/07/25 16:47:20;;;;;;;4.68;3.40;;;;;;;;;;10460728;28;20584;-86
2021/07/25 16:52:21;;;;;;;6.90;3.63;;;;;;;;;;10486277;28;20578;-86
2021/07/25 16:57:21;;;;;;;5.00;3.50;;;;;;;;;;10468898;28;20128;-90
2021/07/25 17:02:22;;;;;;;3.88;3.22;;;;;;;;;;10423432;28;20114;-93
2021/07/25 17:07:22;;;;;;;3.80;3.28;;;;;;;;;;10434829;28;20087;-90
2021/07/25 17:12:23;;;;;;;3.95;3.45;;;;;;;;;;10444325;28;20031;-88
2021/07/25 17:17:23;;;;;;;4.30;3.40;;;;;;;;;;10478789;28;20075;-86
2021/07/25 17:22:24;;;;;;;3.90;3.27;;;;;;;;;;10465442;28;20512;-87
2021/07/25 17:27:25;;;;;;;4.05;3.10;;;;;;;;;;10457092;28;20461;-86
2021/07/25 17:32:26;;;;;;;7.28;3.28;;;;;;;;;;10489272;28;20029;-86
2021/07/25 17:37:27;;;;;;;5.30;3.28;;;;;;;;;;10456992;28;20472;-86
2021/07/25 17:42:27;;;;;;;4.20;3.13;;;;;;;;;;10471581;28;20028;-86
2021/07/25 17:47:28;;;;;;;3.57;2.97;;;;;;;;;;10470667;28;20503;-88
2021/07/25 17:52:28;;;;;;;4.75;2.90;;;;;;;;;;10457015;28;20032;-87
2021/07/25 17:57:31;;;;;;;3.50;3.03;;;;;;;;;;10469899;28;20033;-87
2021/07/25 18:02:32;;;;;;;3.95;3.08;;;;;;;;;;10452757;28;20474;-86
2021/07/25 18:07:32;;;;;;;6.55;3.40;;;;;;;;;;10472976;28;20475;-87
2021/07/25 18:12:33;;;;;;;5.30;3.40;;;;;;;;;;10463654;28;20039;-86
2021/07/25 18:17:33;;;;;;;4.77;3.70;;;;;;;;;;10491291;28;20055;-85
2021/07/25 18:22:34;;;;;;;5.70;3.85;;;;;;;;;;10488078;28;20521;-85
2021/07/25 18:27:35;;;;;;;4.60;3.40;;;;;;;;;;10489984;28;20028;-85
2021/07/25 18:32:35;;;;;;;4.10;3.70;;;;;;;;;;10474890;28;20021;-88
2021/07/25 18:37:36;;;;;;;15.68;3.55;;;;;;;;;;10473030;28;20421;-86
2021/07/25 18:42:36;;;;;;;6.20;3.43;;;;;;;;;;10474202;28;20040;-85
2021/07/25 18:47:37;;;;;;;6.13;3.53;;;;;;;;;;10472361;28;20985;-85
2021/07/25 18:52:37;;;;;;;5.30;3.50;;;;;;;;;;10466797;28;20055;-85
2021/07/25 18:57:37;;;;;;;10.47;3.83;;;;;;;;;;10470492;28;20029;-85
2021/07/25 19:02:39;;;;;;;7.17;3.77;;;;;;;;;;10480175;28;20078;-85
2021/07/25 19:07:40;;;;;;;7.10;3.90;;;;;;;;;;10461905;28;20429;-84
2021/07/25 19:12:41;;;;;;;7.90;3.53;;;;;;;;;;10465036;28;20032;-85
2021/07/25 19:17:41;;;;;;;5.13;3.70;;;;;;;;;;10475267;28;20032;-84
2021/07/25 19:22:42;;;;;;;5.97;4.13;;;;;;;;;;10461443;28;20223;-86
2021/07/25 19:27:42;;;;;;;6.32;3.90;;;;;;;;;;10465015;28;20024;-88
2021/07/25 19:32:42;;;;;;;4.57;3.73;;;;;;;;;;10475432;28;20051;-85
2021/07/25 19:37:43;;;;;;;7.47;4.07;;;;;;;;;;10460865;28;20119;-85
2021/07/25 19:42:43;;;;;;;4.77;3.43;;;;;;;;;;10459200;28;20104;-85
2021/07/25 19:47:43;;;;;;;9.03;3.93;;;;;;;;;;10461320;28;20032;-85
2021/07/25 19:52:44;;;;;;;4.53;3.10;;;;;;;;;;10464307;28;20478;-85
2021/07/25 19:57:44;;;;;;;5.07;3.63;;;;;;;;;;10473076;28;20387;-85
2021/07/25 20:02:45;;;;;;;13.40;3.87;;;;;;;;;;10487631;28;20465;-85
2021/07/25 20:07:45;;;;;;;9.23;4.50;;;;;;;;;;10475664;28;20029;-84
2021/07/25 20:12:46;;;;;;;9.13;4.40;;;;;;;;;;10471597;28;20083;-85
2021/07/25 20:17:47;;;;;;;6.27;4.13;;;;;;;;;;10443299;28;20041;-86
2021/07/25 20:22:47;;;;;;;8.55;4.25;;;;;;;;;;10475503;28;20036;-90
2021/07/25 20:27:48;;;;;;;16.38;4.45;;;;;;;;;;10464156;28;20032;-88
2021/07/25 20:32:48;;;;;;;10.00;3.83;;;;;;;;;;10468259;28;20031;-89
2021/07/25 20:37:49;;;;;;;18.00;4.07;;;;;;;;;;10493717;28;20028;-87
2021/07/25 20:42:49;;;;;;;14.70;4.70;;;;;;;;;;10470065;28;20860;-86
2021/07/25 20:47:50;;;;;;;4.55;3.10;;;;;;;;;;10437297;28;20458;-87
2021/07/25 20:52:53;;;;;;;11.68;4.43;;;;;;;;;;10488028;28;20024;-89
2021/07/25 20:57:55;;;;;;;9.00;3.72;;;;;;;;;;10485830;28;20025;-85
2021/07/25 21:02:56;;;;;;;5.28;3.53;;;;;;;;;;10481550;28;20068;-85
2021/07/25 21:07:57;;;;;;;8.27;4.00;;;;;;;;;;10481536;28;20052;-85
2021/07/25 21:12:58;;;;;;;6.90;3.47;;;;;;;;;;10460064;28;20525;-85
2021/07/25 21:17:58;;;;;;;7.50;4.03;;;;;;;;;;10457700;28;20112;-85
2021/07/25 21:22:58;;;;;;;7.30;4.00;;;;;;;;;;10472955;28;20025;-85
2021/07/25 21:27:59;;;;;;;5.97;3.70;;;;;;;;;;10439347;28;20049;-85
2021/07/25 21:33:00;;;;;;;7.67;3.87;;;;;;;;;;10456601;28;20033;-85
2021/07/25 21:38:00;;;;;;;6.07;4.13;;;;;;;;;;10471322;28;20175;-85
2021/07/25 21:43:00;;;;;;;7.83;4.17;;;;;;;;;;10467069;28;20021;-85
2021/07/25 21:48:01;;;;;;;6.13;4.10;;;;;;;;;;10464029;28;20050;-86
2021/07/25 21:53:01;;;;;;;5.93;3.93;;;;;;;;;;10462664;28;20060;-85
2021/07/25 21:58:02;;;;;;;9.53;3.83;;;;;;;;;;10491160;22;20045;-87
2021/07/25 22:03:05;;;;;;;15.35;6.13;;;;;;;;;;10456404;28;20466;-89
2021/07/25 22:08:05;;;;;;;12.27;4.65;;;;;;;;;;10444899;28;20476;-84
2021/07/25 22:13:07;;;;;;;12.43;4.50;;;;;;;;;;10450225;28;20057;-84
2021/07/25 22:18:07;;;;;;;6.65;4.53;;;;;;;;;;10451347;28;20061;-84
2021/07/25 22:23:08;;;;;;;7.77;4.77;;;;;;;;;;10447276;28;20079;-85
2021/07/25 22:28:08;;;;;;;8.43;3.97;;;;;;;;;;10439650;28;20108;-84
2021/07/25 22:33:12;;;;;;;7.67;4.63;;;;;;;;;;10449390;28;20400;-84
2021/07/25 22:38:12;;;;;;;7.32;4.45;;;;;;;;;;10439423;28;20087;-85
2021/07/25 22:43:13;;;;;;;7.10;4.30;;;;;;;;;;10445011;28;20530;-85
2021/07/25 22:48:17;;;;;;;11.20;5.73;;;;;;;;;;10447068;28;20108;-85
2021/07/25 22:53:17;;;;;;;9.05;4.75;;;;;;;;;;10436289;28;20033;-85
2021/07/25 22:58:18;;;;;;;6.40;4.60;;;;;;;;;;10433099;28;20050;-85
2021/07/25 23:03:18;;;;;;;7.93;4.43;;;;;;;;;;10420356;28;20034;-85
2021/07/25 23:08:19;;;;;;;13.88;5.03;;;;;;;;;;10418896;28;20030;-85
2021/07/25 23:13:19;;;;;;;9.50;4.60;;;;;;;;;;10407786;28;20041;-85
2021/07/25 23:18:19;;;;;;;9.53;4.60;;;;;;;;;;10407711;28;20485;-85
2021/07/25 23:23:20;;;;;;;7.77;4.60;;;;;;;;;;10406074;28;20032;-85
2021/07/25 23:28:21;;;;;;;7.03;4.28;;;;;;;;;;10419495;28;20029;-84
2021/07/25 23:33:21;;;;;;;7.77;4.27;;;;;;;;;;10420556;28;20033;-85
2021/07/25 23:38:21;;;;;;;6.60;4.37;;;;;;;;;;10419423;28;20067;-85
2021/07/25 23:43:22;;;;;;;9.97;4.27;;;;;;;;;;10420286;28;20538;-85
2021/07/25 23:48:22;;;;;;;7.10;4.10;;;;;;;;;;10411182;28;20034;-85
2021/07/25 23:53:22;;;;;;;7.00;4.30;;;;;;;;;;10413407;28;20120;-85
2021/07/25 23:58:23;;;;;;;9.43;4.53;;;;;;;;;;10435276;28;20432;-86
